Time;durP1;ratioP1;P1;durP2;ratioP2;P2;SDS_P1;SDS_P2;PMS_P1;PMS_P2;Temp;Humidity;BMP_temperature;BMP_pressure;BME280_temperature;BME280_humidity;BME280_pressure;Samples;Min_cycle;Max_cycle;Signal;HPM_P1;HPM_P2
2021/12/11 00:02:09;;;;;;;10.77;3.95;;;6.10;87.10;;;;;;5090736;28;20024;-79
2021/12/11 00:04:47;;;;;;;11.93;3.50;;;6.00;86.40;;;;;;5096880;28;20518;-79
2021/12/11 00:07:16;;;;;;;9.43;3.78;;;6.00;87.10;;;;;;5076582;28;20068;-78
2021/12/11 00:09:55;;;;;;;17.45;5.28;;;6.00;87.40;;;;;;5076709;28;20029;-79
2021/12/11 00:12:30;;;;;;;20.63;7.18;;;6.00;87.50;;;;;;5076743;28;20064;-78
2021/12/11 00:15:26;;;;;;;11.45;5.60;;;6.00;87.20;;;;;;5088197;28;20032;-78
2021/12/11 00:17:58;;;;;;;16.45;7.53;;;6.00;87.50;;;;;;5095978;28;20109;-78
2021/12/11 00:20:30;;;;;;;14.82;7.38;;;6.10;86.90;;;;;;5087130;28;20027;-78
2021/12/11 00:22:57;;;;;;;20.63;8.93;;;6.10;86.90;;;;;;5076400;28;20060;-79
2021/12/11 00:25:24;;;;;;;17.02;8.70;;;6.20;86.90;;;;;;5076219;28;20052;-78
2021/12/11 00:28:06;;;;;;;9.57;6.10;;;6.30;87.30;;;;;;5076119;28;20060;-78
2021/12/11 00:30:36;;;;;;;13.77;5.53;;;6.30;86.70;;;;;;5076201;28;20053;-79
2021/12/11 00:33:06;;;;;;;13.20;6.05;;;6.40;86.70;;;;;;5096530;28;20616;-79
2021/12/11 00:35:32;;;;;;;;;;;6.40;86.10;;;;;;5096369;28;20027;-78
2021/12/11 00:38:14;;;;;;;12.35;3.80;;;6.50;86.20;;;;;;5085930;28;19919;-78
2021/12/11 00:40:43;;;;;;;5.65;3.15;;;6.50;86.30;;;;;;5075955;28;20020;-78
2021/12/11 00:43:15;;;;;;;8.80;3.53;;;6.40;86.00;;;;;;5075993;28;20024;-78
2021/12/11 00:45:42;;;;;;;7.10;4.35;;;6.40;86.20;;;;;;5097800;28;20508;-79
2021/12/11 00:48:11;;;;;;;11.45;5.00;;;6.40;86.30;;;;;;5116519;28;20062;-77
2021/12/11 00:51:16;;;;;;;10.15;4.55;;;6.30;86.30;;;;;;5116239;28;20027;-78
2021/12/11 00:53:57;;;;;;;12.55;3.78;;;6.30;86.20;;;;;;5074155;28;20039;-78
2021/12/11 00:56:31;;;;;;;6.65;3.08;;;6.30;86.60;;;;;;5075469;28;20074;-77
2021/12/11 00:59:00;;;;;;;8.88;3.45;;;6.30;85.90;;;;;;5075793;28;20024;-78
2021/12/11 01:01:29;;;;;;;8.38;3.80;;;6.30;86.50;;;;;;5085675;28;20035;-78
2021/12/11 01:03:57;;;;;;;8.10;3.60;;;6.30;86.90;;;;;;5095493;28;20122;-78
2021/12/11 01:06:30;;;;;;;8.32;3.88;;;6.40;86.20;;;;;;5085478;28;20032;-78
2021/12/11 01:09:06;;;;;;;8.85;3.72;;;6.40;86.20;;;;;;5075538;28;20024;-78
2021/12/11 01:12:04;;;;;;;9.50;3.15;;;6.50;85.90;;;;;;5075353;28;20407;-78
2021/12/11 01:14:49;;;;;;;5.82;2.88;;;6.50;86.30;;;;;;5074989;28;20045;-78
2021/12/11 01:17:30;;;;;;;12.00;2.97;;;6.60;86.00;;;;;;5075330;28;20032;-78
2021/12/11 01:19:59;;;;;;;10.27;3.17;;;6.60;86.40;;;;;;5075473;28;20474;-78
2021/12/11 01:22:36;;;;;;;14.15;3.13;;;6.50;85.70;;;;;;5073824;28;20033;-78
2021/12/11 01:25:21;;;;;;;6.45;2.60;;;6.40;86.20;;;;;;5075148;28;20024;-78
2021/12/11 01:27:53;;;;;;;7.65;3.10;;;6.30;86.70;;;;;;5075255;28;20026;-78
2021/12/11 01:30:49;;;;;;;10.38;3.00;;;6.20;85.90;;;;;;5075052;28;20033;-78
2021/12/11 01:33:14;;;;;;;4.65;2.35;;;6.20;86.60;;;;;;5074902;28;20082;-78
2021/12/11 01:35:41;;;;;;;6.95;2.67;;;6.20;86.30;;;;;;5075177;28;20028;-78
2021/12/11 01:38:08;;;;;;;9.38;3.53;;;6.20;86.90;;;;;;5075015;28;20113;-78
2021/12/11 01:40:35;;;;;;;7.63;3.65;;;6.30;87.10;;;;;;5075134;28;20021;-79
2021/12/11 01:43:04;;;;;;;6.63;3.47;;;6.30;87.40;;;;;;5075101;28;20025;-78
2021/12/11 01:45:31;;;;;;;10.70;3.25;;;6.30;87.00;;;;;;5088641;28;20103;-78
2021/12/11 01:47:59;;;;;;;10.43;3.50;;;6.30;87.20;;;;;;5075092;28;20056;-77
2021/12/11 01:50:54;;;;;;;6.15;2.80;;;6.30;87.10;;;;;;5074761;28;20024;-78
2021/12/11 01:53:25;;;;;;;7.85;3.70;;;6.30;87.10;;;;;;5070062;28;20048;-78
2021/12/11 01:55:54;;;;;;;15.23;3.58;;;6.40;86.90;;;;;;5074656;28;20047;-78
2021/12/11 01:58:55;;;;;;;9.87;3.20;;;6.40;86.70;;;;;;5073464;28;20417;-78
2021/12/11 02:01:30;;;;;;;8.88;4.00;;;6.40;87.00;;;;;;5074932;28;20106;-78
2021/12/11 02:03:59;;;;;;;8.98;5.30;;;6.50;86.30;;;;;;5084132;28;20032;-78
2021/12/11 02:06:33;;;;;;;12.40;3.72;;;6.50;86.90;;;;;;5094877;28;20024;-78
2021/12/11 02:09:06;;;;;;;5.47;3.17;;;6.50;86.60;;;;;;5084519;28;20036;-78
2021/12/11 02:11:32;;;;;;;9.77;3.65;;;6.50;87.00;;;;;;5074796;28;20033;-78
2021/12/11 02:14:04;;;;;;;7.85;3.65;;;6.50;86.70;;;;;;5076536;28;20494;-78
2021/12/11 02:16:52;;;;;;;7.30;3.03;;;6.50;87.20;;;;;;5087358;28;20032;-78
2021/12/11 02:19:32;;;;;;;6.65;3.25;;;6.50;86.90;;;;;;5094267;28;20036;-78
2021/12/11 02:22:01;;;;;;;10.52;3.42;;;6.60;87.10;;;;;;5078778;28;20115;-78
2021/12/11 02:24:48;;;;;;;9.95;3.78;;;6.50;86.90;;;;;;5080214;28;20027;-78
2021/12/11 02:27:28;;;;;;;7.32;2.80;;;6.50;87.30;;;;;;5098965;28;20081;-78
2021/12/11 02:30:09;;;;;;;8.45;3.33;;;6.40;87.00;;;;;;5098845;28;20027;-78
2021/12/11 02:32:42;;;;;;;7.18;2.88;;;6.40;87.20;;;;;;5098848;28;20080;-78
2021/12/11 02:35:33;;;;;;;4.38;3.08;;;6.40;87.10;;;;;;5084559;28;20100;-78
2021/12/11 02:38:20;;;;;;;9.60;3.25;;;6.50;87.60;;;;;;5078245;28;20036;-78
2021/12/11 02:41:19;;;;;;;6.88;3.33;;;6.50;87.40;;;;;;5078169;28;20021;-78
2021/12/11 02:43:55;;;;;;;4.10;3.38;;;6.50;87.60;;;;;;5078759;28;20035;-78
2021/12/11 02:46:35;;;;;;;8.35;2.72;;;6.50;87.50;;;;;;5111775;28;20028;-78
2021/12/11 02:49:09;;;;;;;5.72;3.05;;;6.50;87.60;;;;;;5119051;28;20038;-78
2021/12/11 02:51:40;;;;;;;6.35;2.97;;;6.50;87.40;;;;;;5087449;28;20028;-77
2021/12/11 02:54:24;;;;;;;7.75;3.05;;;6.50;87.40;;;;;;5078183;28;20024;-78
2021/12/11 02:56:58;;;;;;;10.60;2.92;;;6.50;87.50;;;;;;5077702;28;20143;-78
2021/12/11 02:59:28;;;;;;;8.13;3.25;;;6.50;87.50;;;;;;5077942;28;20024;-78
2021/12/11 03:02:04;;;;;;;7.15;3.38;;;6.60;87.40;;;;;;5076501;28;20021;-77
2021/12/11 03:04:37;;;;;;;11.70;3.42;;;6.60;87.50;;;;;;5077833;28;20032;-78
2021/12/11 03:07:24;;;;;;;7.82;3.45;;;6.60;87.70;;;;;;5077826;28;20131;-78
2021/12/11 03:09:55;;;;;;;6.38;3.03;;;6.70;87.70;;;;;;5076088;28;20041;-78
2021/12/11 03:12:23;;;;;;;7.18;3.03;;;6.70;87.60;;;;;;5077678;28;20031;-78
2021/12/11 03:14:49;;;;;;;5.97;2.95;;;6.70;87.60;;;;;;5077764;28;20084;-78
2021/12/11 03:17:18;;;;;;;7.78;2.60;;;6.70;87.50;;;;;;5077333;28;20379;-78
2021/12/11 03:19:45;;;;;;;7.13;2.67;;;6.80;87.30;;;;;;5077618;28;20498;-78
2021/12/11 03:22:16;;;;;;;5.68;2.35;;;6.70;87.10;;;;;;5077503;28;20020;-78
2021/12/11 03:24:53;;;;;;;8.60;3.30;;;6.80;87.30;;;;;;5077251;28;20040;-78
2021/12/11 03:27:19;;;;;;;8.48;3.15;;;6.80;87.10;;;;;;5076182;28;20029;-78
2021/12/11 03:29:45;;;;;;;9.07;2.88;;;6.80;87.00;;;;;;5077424;28;20040;-78
2021/12/11 03:32:12;;;;;;;11.35;4.07;;;6.70;87.00;;;;;;5077350;28;20029;-78
2021/12/11 03:34:39;;;;;;;8.00;3.17;;;6.70;87.30;;;;;;5076186;28;20483;-78
2021/12/11 03:37:07;;;;;;;5.70;2.53;;;6.70;87.30;;;;;;5077159;28;20036;-78
2021/12/11 03:39:37;;;;;;;7.05;2.55;;;6.70;87.40;;;;;;5075540;28;20025;-78
2021/12/11 03:42:07;;;;;;;5.80;2.70;;;6.70;87.50;;;;;;5077288;28;20017;-78
2021/12/11 03:44:33;;;;;;;;;;;6.70;87.60;;;;;;5083307;28;20033;-78
2021/12/11 03:47:20;;;;;;;8.82;2.55;;;6.70;87.40;;;;;;5090553;28;19908;-78
2021/12/11 03:49:46;;;;;;;7.78;2.58;;;6.70;87.50;;;;;;5075835;28;20094;-77
2021/12/11 03:52:14;;;;;;;4.95;1.98;;;6.70;87.40;;;;;;5075467;28;20036;-77
2021/12/11 03:54:42;;;;;;;4.80;2.35;;;6.70;87.70;;;;;;5076822;28;20064;-78
2021/12/11 03:57:10;;;;;;;10.02;3.10;;;6.70;87.30;;;;;;5075069;28;20059;-77
2021/12/11 03:59:36;;;;;;;7.10;2.50;;;6.80;87.80;;;;;;5077122;28;20021;-78
2021/12/11 04:02:13;;;;;;;6.70;2.88;;;6.80;87.60;;;;;;5075576;28;20024;-78
2021/12/11 04:04:46;;;;;;;8.05;2.65;;;6.80;87.50;;;;;;5077006;28;20069;-78
2021/12/11 04:07:20;;;;;;;7.03;2.60;;;6.80;87.50;;;;;;5076395;28;20111;-78
2021/12/11 04:10:09;;;;;;;8.07;2.67;;;6.80;87.50;;;;;;5076555;28;20025;-78
2021/12/11 04:12:35;;;;;;;10.48;2.15;;;6.80;87.40;;;;;;5076755;28;20032;-78
2021/12/11 04:15:01;;;;;;;8.63;2.67;;;6.80;87.40;;;;;;5076789;28;20118;-78
2021/12/11 04:17:28;;;;;;;7.45;2.03;;;6.70;87.30;;;;;;5076439;28;20120;-78
2021/12/11 04:20:00;;;;;;;10.18;2.53;;;6.60;87.30;;;;;;5076623;28;20085;-78
2021/12/11 04:22:26;;;;;;;4.85;2.50;;;6.60;87.80;;;;;;5075096;28;20506;-78
2021/12/11 04:24:52;;;;;;;8.60;2.50;;;6.50;87.00;;;;;;5076398;28;20125;-77
2021/12/11 04:27:24;;;;;;;4.13;2.67;;;6.30;86.40;;;;;;5076041;28;20055;-77
2021/12/11 04:29:51;;;;;;;6.57;2.38;;;6.20;87.70;;;;;;5076665;28;20031;-78
2021/12/11 04:32:18;;;;;;;4.68;2.63;;;6.20;87.30;;;;;;5076304;28;20410;-78
2021/12/11 04:34:45;;;;;;;7.70;2.70;;;6.20;87.70;;;;;;5076176;28;20509;-78
2021/12/11 04:37:22;;;;;;;5.47;2.38;;;6.20;87.40;;;;;;5075150;28;20169;-78
2021/12/11 04:39:57;;;;;;;6.20;1.75;;;6.20;87.90;;;;;;5076220;28;20021;-78
2021/12/11 04:45:24;;;;;;;11.50;2.63;;;6.10;87.90;;;;;;5084115;28;20035;-78
2021/12/11 04:47:56;;;;;;;7.22;2.28;;;6.10;88.20;;;;;;5076117;28;20036;-78
2021/12/11 04:50:38;;;;;;;10.82;2.92;;;6.10;88.10;;;;;;5076086;28;20796;-78
2021/12/11 04:53:17;;;;;;;5.85;2.45;;;6.10;88.30;;;;;;5075776;28;20032;-78
2021/12/11 04:56:01;;;;;;;4.50;2.60;;;6.20;88.00;;;;;;5075459;28;20043;-77
2021/12/11 05:11:55;;;;;;;5.93;2.92;;;6.40;87.70;;;;;;5075508;28;20035;-78
2021/12/11 05:14:24;;;;;;;7.05;2.97;;;6.40;87.70;;;;;;5075198;28;20035;-78
2021/12/11 05:16:51;;;;;;;7.45;3.15;;;6.50;87.60;;;;;;5075206;28;20427;-78
2021/12/11 05:19:17;;;;;;;8.05;3.13;;;6.50;87.60;;;;;;5085196;28;20036;-78
2021/12/11 05:21:43;;;;;;;6.40;2.75;;;6.60;87.50;;;;;;5095501;28;20031;-78
2021/12/11 05:24:12;;;;;;;9.82;2.30;;;6.60;87.40;;;;;;5076349;28;20461;-79
2021/12/11 05:26:38;;;;;;;10.38;3.33;;;6.60;87.40;;;;;;5075350;28;20517;-78
2021/12/11 05:29:05;;;;;;;5.32;2.80;;;6.60;87.60;;;;;;5075350;28;20353;-78
2021/12/11 05:31:31;;;;;;;7.03;2.90;;;6.60;87.80;;;;;;5075157;28;20046;-78
2021/12/11 05:33:57;;;;;;;8.25;2.80;;;6.70;87.90;;;;;;5075223;28;20051;-78
2021/12/11 05:36:23;;;;;;;8.50;3.10;;;6.70;87.30;;;;;;5074971;28;20021;-78
2021/12/11 05:38:49;;;;;;;9.00;3.40;;;6.70;87.20;;;;;;5074967;28;20029;-78
2021/12/11 05:41:20;;;;;;;8.63;2.80;;;6.70;87.40;;;;;;5074126;28;20033;-77
2021/12/11 05:43:47;;;;;;;8.00;3.30;;;6.70;87.20;;;;;;5075230;28;20089;-78
2021/12/11 05:46:15;;;;;;;7.70;3.20;;;6.70;87.50;;;;;;5106184;28;20100;-78
2021/12/11 05:48:43;;;;;;;9.70;3.30;;;6.70;87.10;;;;;;5115330;28;20379;-77
2021/12/11 05:51:10;;;;;;;6.50;3.55;;;6.70;87.50;;;;;;5100202;28;20028;-78
2021/12/11 05:53:36;;;;;;;8.00;2.58;;;6.70;86.90;;;;;;5092510;28;20028;-78
2021/12/11 05:56:09;;;;;;;10.32;3.22;;;6.70;87.10;;;;;;5094544;28;20074;-78
2021/12/11 05:59:18;;;;;;;7.95;2.85;;;6.70;87.20;;;;;;5095182;28;20048;-77
2021/12/11 06:01:28;;;;;;;11.07;2.78;;;6.70;87.00;;;;;;5072453;28;20795;-78
2021/12/11 06:03:53;;;;;;;7.13;2.95;;;6.70;87.30;;;;;;5074854;28;20052;-78
2021/12/11 06:06:19;;;;;;;9.95;3.90;;;6.70;87.50;;;;;;5075121;28;20043;-78
2021/12/11 06:08:46;;;;;;;11.68;3.05;;;6.70;86.90;;;;;;5074584;28;20028;-78
2021/12/11 06:11:14;;;;;;;4.03;2.33;;;6.60;86.80;;;;;;5074774;28;20032;-78
2021/12/11 06:13:40;;;;;;;8.02;2.75;;;6.60;87.50;;;;;;5083388;28;20024;-78
2021/12/11 06:16:06;;;;;;;5.32;2.47;;;6.60;87.30;;;;;;5094836;28;20145;-78
2021/12/11 06:18:32;;;;;;;7.20;2.78;;;6.50;87.00;;;;;;5094890;28;20036;-78
2021/12/11 06:21:01;;;;;;;11.18;4.25;;;6.50;86.90;;;;;;5094871;28;20028;-77
2021/12/11 06:23:27;;;;;;;13.80;3.42;;;6.50;86.90;;;;;;5080244;28;20056;-78
2021/12/11 06:25:55;;;;;;;6.63;2.83;;;6.50;87.40;;;;;;5074739;28;20550;-78
2021/12/11 06:28:23;;;;;;;14.82;3.20;;;6.50;87.90;;;;;;5074412;28;20020;-78
2021/12/11 06:30:49;;;;;;;9.55;2.50;;;6.60;87.70;;;;;;5084829;28;20477;-78
2021/12/11 06:33:15;;;;;;;5.68;2.75;;;6.60;87.60;;;;;;5087897;28;20498;-82
2021/12/11 06:35:56;;;;;;;9.30;3.33;;;6.50;86.50;;;;;;5074781;28;20028;-79
2021/12/11 06:38:26;;;;;;;17.77;3.40;;;6.50;87.10;;;;;;5074306;28;20492;-82
2021/12/11 06:40:53;;;;;;;6.78;2.95;;;6.50;87.70;;;;;;5074420;28;20028;-81
2021/12/11 06:43:19;;;;;;;6.18;3.05;;;6.60;87.50;;;;;;5074386;28;20036;-80
2021/12/11 06:45:46;;;;;;;13.60;3.95;;;6.70;87.60;;;;;;5097600;28;20019;-79
2021/12/11 06:48:13;;;;;;;12.95;3.80;;;6.70;87.70;;;;;;5114725;28;20774;-79
2021/12/11 06:50:39;;;;;;;7.57;3.13;;;6.70;87.60;;;;;;5114969;28;20028;-79
2021/12/11 06:53:11;;;;;;;7.65;3.00;;;6.80;87.60;;;;;;5075907;28;20162;-80
2021/12/11 06:55:37;;;;;;;7.75;2.67;;;6.80;87.20;;;;;;5074318;28;20143;-82
2021/12/11 06:58:03;;;;;;;9.38;3.20;;;6.80;87.30;;;;;;5074038;28;20137;-80
2021/12/11 07:00:29;;;;;;;9.68;3.53;;;6.80;87.40;;;;;;5075115;28;20016;-79
2021/12/11 07:02:55;;;;;;;10.55;4.20;;;6.80;87.60;;;;;;5077081;28;20025;-79
2021/12/11 07:05:21;;;;;;;14.20;4.32;;;6.80;87.20;;;;;;5083522;28;20111;-93
2021/12/11 07:07:47;;;;;;;8.63;3.47;;;6.80;86.90;;;;;;5095524;28;20063;-79
2021/12/11 07:10:17;;;;;;;7.28;3.20;;;6.80;86.50;;;;;;5096490;28;20122;-77
2021/12/11 07:12:44;;;;;;;6.18;3.33;;;6.70;87.10;;;;;;5095437;28;20040;-77
2021/12/11 07:15:10;;;;;;;9.38;3.15;;;6.70;87.30;;;;;;5096442;28;20024;-77
2021/12/11 07:17:36;;;;;;;9.45;3.33;;;6.80;87.50;;;;;;5097576;28;20040;-78
2021/12/11 07:20:09;;;;;;;13.55;4.38;;;6.80;87.40;;;;;;5097366;28;20016;-78
2021/12/11 07:22:36;;;;;;;9.85;4.13;;;6.70;87.20;;;;;;5096573;28;20016;-77
2021/12/11 07:25:10;;;;;;;18.15;5.30;;;6.70;87.10;;;;;;5092456;28;20063;-77
2021/12/11 07:27:35;;;;;;;12.23;5.07;;;6.70;87.20;;;;;;5097484;28;20012;-77
2021/12/11 07:30:01;;;;;;;14.02;4.63;;;6.70;87.40;;;;;;5094586;28;20045;-76
2021/12/11 07:32:27;;;;;;;10.38;4.85;;;6.70;87.60;;;;;;5095011;28;20021;-77
2021/12/11 07:34:55;;;;;;;12.38;5.15;;;6.70;87.50;;;;;;5097152;28;20394;-76
2021/12/11 07:37:21;;;;;;;8.80;5.50;;;6.70;87.10;;;;;;5095597;28;20113;-79
2021/12/11 07:39:47;;;;;;;14.40;5.82;;;6.70;87.30;;;;;;5095025;28;20024;-79
2021/12/11 07:46:35;;;;;;;17.65;6.65;;;6.70;87.50;;;;;;5071053;28;20559;-80
2021/12/11 07:49:03;;;;;;;21.17;8.63;;;6.60;87.70;;;;;;5070330;28;20057;-79
2021/12/11 07:51:30;;;;;;;15.98;8.55;;;6.50;87.70;;;;;;5069091;28;20028;-78
2021/12/11 07:53:56;;;;;;;18.10;8.30;;;6.50;87.00;;;;;;5070071;28;20071;-78
2021/12/11 07:56:23;;;;;;;21.95;9.70;;;6.50;87.60;;;;;;5066472;28;20032;-79
2021/12/11 07:58:52;;;;;;;17.90;8.63;;;6.60;87.60;;;;;;5070324;28;20021;-83
2021/12/11 08:01:19;;;;;;;15.85;8.13;;;6.70;87.70;;;;;;5071697;28;20027;-80
2021/12/11 08:03:44;;;;;;;13.70;6.93;;;6.70;87.50;;;;;;5070714;28;20043;-83
2021/12/11 08:06:11;;;;;;;14.00;6.18;;;6.60;87.00;;;;;;5067168;28;20033;-81
2021/12/11 08:08:39;;;;;;;13.43;6.30;;;6.60;87.20;;;;;;5066947;28;20047;-80
2021/12/11 08:11:11;;;;;;;12.55;5.40;;;6.70;87.50;;;;;;5056932;28;20021;-80
2021/12/11 08:13:38;;;;;;;11.98;5.65;;;6.70;87.20;;;;;;5054290;28;20029;-79
2021/12/11 08:16:04;;;;;;;17.30;6.75;;;6.70;87.10;;;;;;5060723;28;20079;-80
2021/12/11 08:18:29;;;;;;;12.98;6.45;;;6.70;86.90;;;;;;5069280;28;20028;-80
2021/12/11 08:20:56;;;;;;;8.70;5.90;;;6.70;86.70;;;;;;5080236;28;20358;-81
2021/12/11 08:23:22;;;;;;;15.80;5.78;;;6.80;86.80;;;;;;5073093;28;20028;-81
2021/12/11 08:25:51;;;;;;;11.82;5.75;;;6.80;87.00;;;;;;5069314;28;20394;-84
2021/12/11 08:28:25;;;;;;;14.30;7.15;;;6.80;86.80;;;;;;5066276;28;20025;-80
2021/12/11 08:30:52;;;;;;;13.45;6.30;;;6.80;86.40;;;;;;5066956;28;20028;-80
2021/12/11 08:33:19;;;;;;;11.70;6.80;;;6.80;86.60;;;;;;5064297;28;20033;-80
2021/12/11 08:35:46;;;;;;;9.40;6.45;;;6.90;87.20;;;;;;5066796;28;20033;-80
2021/12/11 08:38:13;;;;;;;11.05;6.63;;;6.90;86.60;;;;;;5058712;28;20025;-81
2021/12/11 08:40:43;;;;;;;17.95;6.72;;;7.00;86.90;;;;;;5064951;28;20032;-81
2021/12/11 08:43:11;;;;;;;7.95;5.38;;;7.00;86.40;;;;;;5084005;28;20108;-81
2021/12/11 08:45:50;;;;;;;14.48;6.10;;;7.00;86.80;;;;;;5048079;28;20045;-80
2021/12/11 08:48:19;;;;;;;9.15;5.15;;;7.00;85.90;;;;;;5031575;28;20022;-79
2021/12/11 08:50:48;;;;;;;9.23;5.85;;;7.00;86.10;;;;;;5029894;28;20396;-79
2021/12/11 08:53:14;;;;;;;13.98;4.55;;;7.00;86.70;;;;;;5030799;28;20036;-82
2021/12/11 08:55:43;;;;;;;13.65;5.15;;;7.00;86.50;;;;;;5043725;28;20083;-84
2021/12/11 08:58:14;;;;;;;19.25;6.38;;;7.00;86.20;;;;;;5035522;28;20044;-79
2021/12/11 09:00:49;;;;;;;17.33;6.13;;;7.00;86.20;;;;;;5034757;28;20033;-78
2021/12/11 09:08:18;;;;;;;16.42;5.80;;;7.00;86.20;;;;;;5046458;28;20798;-77
2021/12/11 09:10:53;;;;;;;21.55;6.32;;;6.90;86.70;;;;;;5049798;28;20037;-78
2021/12/11 09:13:28;;;;;;;20.13;6.75;;;6.90;86.20;;;;;;5063970;28;20029;-79
2021/12/11 09:16:09;;;;;;;15.77;7.82;;;7.00;86.60;;;;;;5051814;28;20044;-78
2021/12/11 09:19:00;;;;;;;14.73;6.50;;;7.10;86.30;;;;;;5040895;28;20044;-79
2021/12/11 09:21:34;;;;;;;11.52;7.50;;;7.20;85.90;;;;;;5051057;28;20041;-79
2021/12/11 09:24:04;;;;;;;14.13;6.88;;;7.30;86.20;;;;;;5076779;28;20022;-78
2021/12/11 09:26:36;;;;;;;14.98;6.55;;;7.40;85.70;;;;;;5050177;28;20029;-80
2021/12/11 09:29:22;;;;;;;10.52;6.60;;;7.40;85.50;;;;;;5041015;28;20022;-79
2021/12/11 09:31:57;;;;;;;14.80;5.85;;;7.50;85.80;;;;;;5048431;28;20080;-79
2021/12/11 09:34:29;;;;;;;17.80;6.38;;;7.50;85.60;;;;;;5048897;28;20053;-77
2021/12/11 09:36:58;;;;;;;13.15;6.85;;;7.60;85.50;;;;;;5048520;28;20036;-76
2021/12/11 09:39:33;;;;;;;12.48;4.82;;;7.70;85.30;;;;;;5046743;28;20033;-77
2021/12/11 09:41:59;;;;;;;12.38;5.57;;;7.70;85.20;;;;;;5043537;28;20053;-77
2021/12/11 09:44:33;;;;;;;11.48;5.70;;;7.70;85.20;;;;;;5048780;28;20804;-77
2021/12/11 09:47:10;;;;;;;14.15;5.88;;;7.60;85.10;;;;;;5048850;28;20045;-76
2021/12/11 09:49:42;;;;;;;16.40;5.85;;;7.70;85.50;;;;;;5048628;28;20045;-76
2021/12/11 09:52:23;;;;;;;11.30;4.95;;;7.80;85.30;;;;;;5049158;28;20075;-76
2021/12/11 09:54:54;;;;;;;9.77;4.65;;;7.80;85.20;;;;;;5048967;28;20017;-76
2021/12/11 09:57:22;;;;;;;11.05;5.20;;;7.90;85.40;;;;;;5050836;28;20025;-77
2021/12/11 09:59:51;;;;;;;14.20;6.50;;;8.00;84.80;;;;;;5049648;28;20051;-76
2021/12/11 10:02:24;;;;;;;19.55;6.53;;;8.00;84.90;;;;;;5042286;28;20029;-77
2021/12/11 10:05:00;;;;;;;11.10;4.88;;;8.10;84.80;;;;;;5037056;28;20151;-77
2021/12/11 10:07:34;;;;;;;9.60;5.18;;;8.00;84.90;;;;;;5049876;28;20069;-76
2021/12/11 10:10:19;;;;;;;8.18;4.20;;;8.10;85.10;;;;;;5046778;28;20051;-78
2021/12/11 10:12:52;;;;;;;11.70;5.90;;;8.20;85.10;;;;;;5032448;28;20013;-76
2021/12/11 10:15:34;;;;;;;12.07;4.85;;;8.20;85.00;;;;;;5045358;28;20079;-76
2021/12/11 10:18:28;;;;;;;10.18;3.90;;;8.20;84.60;;;;;;5042181;28;20079;-76
2021/12/11 10:21:06;;;;;;;9.48;4.22;;;8.30;85.10;;;;;;5032395;28;20033;-76
2021/12/11 10:23:35;;;;;;;7.88;4.35;;;8.30;84.90;;;;;;5035943;28;20030;-78
2021/12/11 10:26:03;;;;;;;12.88;4.65;;;8.30;84.90;;;;;;5020984;28;20067;-76
2021/12/11 10:28:29;;;;;;;13.75;4.32;;;8.40;85.10;;;;;;5034063;28;20032;-77
2021/12/11 10:31:09;;;;;;;8.73;4.65;;;8.40;85.00;;;;;;5031593;28;20033;-76
2021/12/11 10:33:35;;;;;;;19.50;4.80;;;8.60;85.10;;;;;;5036490;28;20040;-77
2021/12/11 10:36:06;;;;;;;10.38;4.22;;;8.70;85.40;;;;;;5034450;28;20041;-77
2021/12/11 10:38:33;;;;;;;12.63;5.38;;;8.60;84.50;;;;;;5031261;28;20045;-77
2021/12/11 10:41:00;;;;;;;19.02;5.38;;;8.70;85.10;;;;;;5035459;28;20079;-77
2021/12/11 10:43:42;;;;;;;14.18;5.22;;;8.70;84.90;;;;;;5034498;28;20037;-77
2021/12/11 10:46:11;;;;;;;9.57;4.00;;;8.70;85.40;;;;;;5036649;28;20025;-78
2021/12/11 10:48:38;;;;;;;14.82;4.75;;;8.80;85.00;;;;;;5027391;28;20029;-77
2021/12/11 10:51:11;;;;;;;13.30;4.22;;;8.80;84.70;;;;;;5033305;28;20144;-77
2021/12/11 10:53:40;;;;;;;19.52;5.47;;;8.80;84.60;;;;;;5031273;28;20034;-77
2021/12/11 10:56:07;;;;;;;14.13;4.90;;;8.90;85.20;;;;;;5033060;28;20040;-77
2021/12/11 10:58:41;;;;;;;15.88;4.75;;;8.90;84.70;;;;;;5034209;28;20127;-78
2021/12/11 11:01:21;;;;;;;15.43;4.85;;;9.00;84.80;;;;;;5029767;28;20060;-78
2021/12/11 11:03:53;;;;;;;13.25;5.07;;;9.10;84.60;;;;;;5030938;28;20029;-78
2021/12/11 11:06:19;;;;;;;24.60;6.20;;;9.10;84.10;;;;;;5035698;28;20045;-81
2021/12/11 11:08:46;;;;;;;15.93;5.55;;;9.20;84.20;;;;;;5035131;28;20079;-79
2021/12/11 11:11:16;;;;;;;19.75;5.38;;;9.10;83.80;;;;;;5032976;28;20017;-79
2021/12/11 11:13:42;;;;;;;12.65;5.30;;;9.20;84.50;;;;;;5027191;28;20025;-80
2021/12/11 11:16:08;;;;;;;14.50;5.40;;;9.20;84.40;;;;;;5035291;28;20033;-79
2021/12/11 11:18:35;;;;;;;18.70;6.03;;;9.20;84.30;;;;;;5031668;28;20139;-80
2021/12/11 11:21:04;;;;;;;12.05;5.38;;;9.20;84.20;;;;;;5031597;28;20034;-84
2021/12/11 11:23:30;;;;;;;15.55;6.18;;;9.30;84.60;;;;;;5041702;28;20036;-94
2021/12/11 11:25:58;;;;;;;16.60;6.05;;;9.40;84.30;;;;;;5036683;28;20057;-92
2021/12/11 11:28:33;;;;;;;16.50;5.78;;;9.40;84.50;;;;;;5035803;28;20033;-90
2021/12/11 11:31:03;;;;;;;20.08;6.00;;;9.50;84.40;;;;;;5031186;28;20062;-85
2021/12/11 11:33:30;;;;;;;13.40;4.85;;;9.50;83.80;;;;;;5028394;28;20064;-82
2021/12/11 11:35:58;;;;;;;25.65;5.68;;;9.60;83.90;;;;;;5031205;28;20033;-89
2021/12/11 11:38:32;;;;;;;16.00;4.75;;;9.60;84.20;;;;;;5036618;28;20029;-83
2021/12/11 11:41:04;;;;;;;18.65;5.30;;;9.60;84.20;;;;;;5031388;28;20040;-83
2021/12/11 11:43:29;;;;;;;13.02;3.97;;;9.70;84.10;;;;;;5034904;28;20028;-80
2021/12/11 11:45:56;;;;;;;10.82;5.80;;;9.70;84.00;;;;;;5034190;28;20396;-81
2021/12/11 11:48:25;;;;;;;12.93;4.45;;;9.60;84.10;;;;;;5034463;28;20036;-84
2021/12/11 11:50:53;;;;;;;15.45;3.97;;;9.70;84.10;;;;;;5034785;28;20112;-81
2021/12/11 11:53:24;;;;;;;10.57;4.35;;;9.60;83.90;;;;;;5032788;28;20061;-80
2021/12/11 11:55:59;;;;;;;18.63;4.88;;;9.60;84.70;;;;;;5035758;28;20053;-83
2021/12/11 11:58:29;;;;;;;12.18;4.25;;;9.70;84.50;;;;;;5029888;28;20072;-85
2021/12/11 12:01:08;;;;;;;10.90;4.95;;;9.80;84.40;;;;;;5034496;28;20616;-81
2021/12/11 12:03:35;;;;;;;13.98;4.88;;;9.90;84.50;;;;;;5032633;28;20029;-90
2021/12/11 12:06:05;;;;;;;10.57;4.05;;;10.00;83.40;;;;;;5028900;28;20072;-81
2021/12/11 12:08:31;;;;;;;17.70;4.85;;;10.00;83.30;;;;;;5033378;28;20025;-83
2021/12/11 12:10:58;;;;;;;16.27;5.53;;;10.10;83.70;;;;;;5032017;28;20030;-80
2021/12/11 12:13:27;;;;;;;13.45;5.30;;;10.20;83.90;;;;;;5043116;28;20026;-79
2021/12/11 12:16:01;;;;;;;11.80;4.25;;;10.20;83.90;;;;;;5033467;28;20446;-78
2021/12/11 12:18:27;;;;;;;18.55;4.97;;;10.10;83.30;;;;;;5030244;28;20102;-79
2021/12/11 12:20:55;;;;;;;10.98;4.43;;;10.10;83.30;;;;;;5036085;28;20651;-78
2021/12/11 12:23:23;;;;;;;14.27;4.95;;;10.10;83.70;;;;;;5033008;28;20449;-78
2021/12/11 12:25:51;;;;;;;14.20;4.40;;;10.20;84.00;;;;;;5034540;28;20029;-77
2021/12/11 12:28:18;;;;;;;13.57;5.50;;;10.20;83.30;;;;;;5030674;28;20554;-79
2021/12/11 12:30:57;;;;;;;15.23;5.68;;;10.10;83.90;;;;;;5032946;28;20025;-81
2021/12/11 12:33:24;;;;;;;10.27;4.13;;;10.20;83.90;;;;;;5029691;28;20399;-79
2021/12/11 12:35:50;;;;;;;20.33;6.68;;;10.30;83.80;;;;;;5033937;28;20041;-79
2021/12/11 12:38:18;;;;;;;11.32;4.85;;;10.30;83.80;;;;;;5031832;28;20041;-80
2021/12/11 12:40:58;;;;;;;13.73;5.60;;;10.20;83.10;;;;;;5031289;28;20087;-80
2021/12/11 12:43:55;;;;;;;16.50;4.22;;;10.20;84.20;;;;;;5033823;28;20026;-81
2021/12/11 12:46:27;;;;;;;12.95;4.70;;;10.20;83.80;;;;;;5030620;28;20059;-83
2021/12/11 12:48:55;;;;;;;14.38;5.60;;;10.10;84.30;;;;;;5031519;28;20110;-81
2021/12/11 12:51:21;;;;;;;11.48;4.78;;;10.20;84.50;;;;;;5032995;28;20025;-81
2021/12/11 12:53:48;;;;;;;15.63;4.05;;;10.20;84.40;;;;;;5013602;28;20030;-91
2021/12/11 12:56:19;;;;;;;8.60;3.78;;;10.20;84.10;;;;;;5033272;28;20384;-88
2021/12/11 12:58:57;;;;;;;12.63;3.38;;;10.20;84.00;;;;;;5033453;28;20048;-92
2021/12/11 13:01:29;;;;;;;14.52;4.05;;;10.20;84.10;;;;;;5033163;28;20112;-85
2021/12/11 13:04:01;;;;;;;12.25;4.00;;;10.20;84.00;;;;;;5027658;28;20029;-84
2021/12/11 13:06:31;;;;;;;15.75;4.43;;;10.20;84.00;;;;;;5030824;28;20826;-84
2021/12/11 13:09:08;;;;;;;16.42;4.15;;;10.30;84.10;;;;;;5029075;28;20053;-87
2021/12/11 13:11:57;;;;;;;16.58;4.57;;;10.30;84.30;;;;;;5030670;28;20022;-87
2021/12/11 13:14:24;;;;;;;11.50;5.05;;;10.40;83.90;;;;;;5028169;28;20056;-87
2021/12/11 13:16:54;;;;;;;17.23;4.15;;;10.40;83.80;;;;;;5030805;28;20033;-87
2021/12/11 13:19:28;;;;;;;13.40;3.50;;;10.50;84.00;;;;;;5031553;28;20499;-87
2021/12/11 13:22:35;;;;;;;9.52;3.38;;;10.50;83.40;;;;;;5030350;28;20034;-87
2021/12/11 13:25:14;;;;;;;12.73;3.88;;;10.60;83.40;;;;;;5011109;28;20021;-88
2021/12/11 13:27:42;;;;;;;9.60;4.22;;;10.60;82.90;;;;;;5029952;28;20041;-87
2021/12/11 13:30:13;;;;;;;12.90;4.95;;;10.60;83.10;;;;;;5030935;28;20025;-88
2021/12/11 13:32:39;;;;;;;13.43;4.65;;;10.80;83.50;;;;;;5032893;28;20131;-88
2021/12/11 13:35:10;;;;;;;13.00;4.25;;;10.80;83.30;;;;;;5032485;28;20021;-87
2021/12/11 13:37:36;;;;;;;21.35;4.78;;;10.80;82.70;;;;;;5031081;28;20029;-87
2021/12/11 13:40:06;;;;;;;10.35;4.60;;;10.90;82.70;;;;;;5031158;28;20030;-87